Time;durP1;ratioP1;P1;durP2;ratioP2;P2;SDS_P1;SDS_P2;PMS_P1;PMS_P2;Temp;Humidity;BMP_temperature;BMP_pressure;BME280_temperature;BME280_humidity;BME280_pressure;Samples;Min_cycle;Max_cycle;Signal;HPM_P1;HPM_P2
2021/09/10 00:02:01;;;;;;;37.22;14.98;;;;;;;26.90;48.60;100419.13;5075221;28;20387;-72
2021/09/10 00:04:27;;;;;;;37.13;15.30;;;;;;;26.86;48.93;100423.25;5075114;28;20040;-72
2021/09/10 00:06:53;;;;;;;50.85;17.20;;;;;;;26.91;48.70;100428.38;5075022;28;20391;-72
2021/09/10 00:09:19;;;;;;;42.75;17.25;;;;;;;26.94;48.41;100425.47;5074894;28;20032;-70
2021/09/10 00:11:45;;;;;;;31.00;16.30;;;;;;;26.94;48.50;100431.09;5074940;28;20047;-70
2021/09/10 00:14:10;;;;;;;49.97;15.15;;;;;;;26.87;48.81;100430.44;5075178;28;20149;-70
2021/09/10 00:16:36;;;;;;;32.05;15.85;;;;;;;26.89;48.79;100423.16;5074831;28;20024;-70
2021/09/10 00:19:02;;;;;;;40.67;16.20;;;;;;;26.91;48.79;100434.75;5074715;28;20024;-70
2021/09/10 00:21:28;;;;;;;27.67;14.75;;;;;;;26.94;48.61;100425.47;5074703;28;20035;-72
2021/09/10 00:23:53;;;;;;;31.88;14.68;;;;;;;26.97;48.59;100435.81;5074978;28;20115;-70
2021/09/10 00:26:19;;;;;;;37.88;16.80;;;;;;;27.00;48.48;100429.34;5074658;28;20025;-70
2021/09/10 00:28:45;;;;;;;32.60;16.30;;;;;;;27.02;48.54;100426.91;5074600;28;20024;-70
2021/09/10 00:31:10;;;;;;;46.47;18.52;;;;;;;27.03;48.31;100428.47;5074562;28;20444;-70
2021/09/10 00:33:36;;;;;;;34.53;16.42;;;;;;;27.02;48.46;100429.72;5074426;28;20036;-70
2021/09/10 00:36:02;;;;;;;32.40;15.48;;;;;;;27.06;48.31;100432.47;5074547;28;20039;-70
2021/09/10 00:38:28;;;;;;;69.57;22.45;;;;;;;27.07;48.12;100425.66;5074440;28;20025;-70
2021/09/10 00:40:53;;;;;;;44.90;17.63;;;;;;;27.04;48.20;100432.88;5074460;28;20052;-70
2021/09/10 00:43:19;;;;;;;39.10;17.85;;;;;;;26.98;48.34;100419.78;5073755;28;20040;-70
2021/09/10 00:45:47;;;;;;;68.25;22.75;;;;;;;26.97;48.26;100421.78;5074340;28;20075;-70
2021/09/10 00:48:15;;;;;;;49.17;19.20;;;;;;;26.98;48.34;100426.19;5074227;28;20378;-70
2021/09/10 00:50:41;;;;;;;36.47;18.38;;;;;;;26.96;48.19;100417.41;5074429;28;20032;-70
2021/09/10 00:53:08;;;;;;;45.47;18.17;;;;;;;26.91;48.25;100419.97;5056240;28;20382;-70
2021/09/10 00:55:35;;;;;;;30.80;17.05;;;;;;;26.88;48.22;100416.00;5073892;28;20094;-70
2021/09/10 00:58:01;;;;;;;74.53;23.05;;;;;;;26.87;48.22;100417.22;5073910;28;20433;-70
2021/09/10 01:00:26;;;;;;;106.05;21.73;;;;;;;26.77;48.65;100427.44;5073911;28;20027;-70
2021/09/10 01:02:56;;;;;;;64.93;20.48;;;;;;;26.72;48.68;100415.94;5074208;28;20482;-70
2021/09/10 01:05:21;;;;;;;62.17;21.73;;;;;;;26.75;48.41;100413.06;5055955;28;20093;-71
2021/09/10 01:07:48;;;;;;;59.50;21.92;;;;;;;26.74;48.50;100416.28;5056175;28;20028;-70
2021/09/10 01:10:16;;;;;;;55.17;17.85;;;;;;;26.71;48.56;100415.13;5073715;28;20044;-70
2021/09/10 01:12:42;;;;;;;89.43;19.67;;;;;;;26.78;48.43;100414.19;5073733;28;20020;-70
2021/09/10 01:15:09;;;;;;;88.25;22.23;;;;;;;26.71;48.51;100412.34;5055671;28;20056;-70
2021/09/10 01:17:38;;;;;;;116.20;22.73;;;;;;;26.75;48.38;100420.66;5073190;28;20083;-70
2021/09/10 01:20:06;;;;;;;63.15;20.48;;;;;;;26.77;48.32;100418.22;5073586;28;20391;-70
2021/09/10 01:22:32;;;;;;;94.22;21.00;;;;;;;26.73;48.24;100415.50;5072898;28;20056;-70
2021/09/10 01:25:04;;;;;;;68.22;16.15;;;;;;;26.73;48.26;100423.09;5070803;28;20017;-70
2021/09/10 01:27:30;;;;;;;98.63;18.85;;;;;;;26.64;48.65;100422.91;5073314;28;20031;-70
2021/09/10 01:29:58;;;;;;;100.30;19.85;;;;;;;26.41;49.12;100427.34;5055456;28;20028;-70
2021/09/10 01:32:23;;;;;;;92.35;19.67;;;;;;;26.55;48.95;100424.25;5073330;28;20023;-70
2021/09/10 01:34:49;;;;;;;73.63;18.63;;;;;;;26.60;48.83;100433.38;5088839;28;20036;-70
2021/09/10 01:37:14;;;;;;;78.85;17.15;;;;;;;26.60;48.63;100438.97;5073185;28;20030;-70
2021/09/10 01:39:40;;;;;;;36.53;14.05;;;;;;;26.61;48.54;100440.59;5073215;28;20056;-70
2021/09/10 01:42:06;;;;;;;52.47;14.73;;;;;;;26.55;48.55;100431.88;5088962;28;20020;-70
2021/09/10 01:44:31;;;;;;;40.88;14.40;;;;;;;26.49;48.99;100445.59;5073333;28;20063;-72
2021/09/10 01:46:57;;;;;;;30.98;13.90;;;;;;;26.60;48.51;100436.16;5073112;28;20032;-70
2021/09/10 01:49:23;;;;;;;24.98;12.30;;;;;;;26.65;48.30;100439.28;5073091;28;20103;-69
2021/09/10 01:51:48;;;;;;;26.65;14.02;;;;;;;26.73;48.14;100448.34;5072997;28;20466;-70
2021/09/10 01:54:14;;;;;;;32.95;13.80;;;;;;;26.78;47.93;100439.44;5072817;28;20379;-70
2021/09/10 01:56:40;;;;;;;23.80;12.65;;;;;;;26.70;48.21;100449.19;5071911;28;20024;-70
2021/09/10 01:59:05;;;;;;;23.83;12.55;;;;;;;26.76;48.05;100436.28;5072857;28;20017;-70
2021/09/10 02:01:31;;;;;;;29.25;14.07;;;;;;;26.72;48.04;100443.94;5072774;28;20020;-70
2021/09/10 02:03:58;;;;;;;38.17;14.75;;;;;;;26.75;47.90;100448.69;5072953;28;20495;-70
2021/09/10 02:06:24;;;;;;;33.70;15.70;;;;;;;26.68;47.97;100443.25;5072764;28;20017;-70
2021/09/10 02:08:49;;;;;;;32.55;14.43;;;;;;;26.70;47.99;100450.00;5072733;28;20021;-70
2021/09/10 02:11:16;;;;;;;26.27;13.25;;;;;;;26.69;48.08;100442.81;5072737;28;20024;-70
2021/09/10 02:13:41;;;;;;;26.33;15.60;;;;;;;26.76;47.90;100441.88;5072630;28;20047;-70
2021/09/10 02:16:08;;;;;;;40.53;14.38;;;;;;;26.73;48.04;100446.31;5072609;28;20055;-70
2021/09/10 02:18:34;;;;;;;32.67;14.65;;;;;;;26.72;47.96;100443.94;5072661;28;20028;-70
2021/09/10 02:21:00;;;;;;;28.30;14.07;;;;;;;26.73;47.92;100440.72;5088346;28;20024;-70
2021/09/10 02:23:25;;;;;;;28.65;15.20;;;;;;;26.70;48.08;100446.41;5072835;28;20025;-70
2021/09/10 02:25:51;;;;;;;29.45;14.38;;;;;;;26.67;48.04;100452.84;5088472;28;20037;-70
2021/09/10 02:28:17;;;;;;;26.88;13.00;;;;;;;26.67;48.21;100450.84;5088281;28;20021;-70
2021/09/10 02:30:42;;;;;;;30.02;15.45;;;;;;;26.67;48.21;100450.84;5072382;28;20126;-71
2021/09/10 02:33:08;;;;;;;30.83;15.20;;;;;;;26.57;48.53;100454.66;5072485;28;20099;-70
2021/09/10 02:35:33;;;;;;;29.05;16.08;;;;;;;26.66;48.00;100451.28;5072627;28;20027;-70
2021/09/10 02:37:59;;;;;;;26.00;13.45;;;;;;;26.63;48.11;100454.94;5072449;28;20021;-70
2021/09/10 02:40:24;;;;;;;30.92;14.57;;;;;;;26.59;48.56;100457.78;5072488;28;20037;-70
2021/09/10 02:42:50;;;;;;;31.90;15.82;;;;;;;26.62;48.53;100464.56;5072427;28;20387;-70
2021/09/10 02:45:16;;;;;;;22.35;13.48;;;;;;;26.69;48.43;100461.63;5087828;28;20051;-70
2021/09/10 02:47:41;;;;;;;36.45;16.95;;;;;;;26.69;48.38;100454.03;5087898;28;20090;-70
2021/09/10 02:50:08;;;;;;;25.85;15.02;;;;;;;26.75;48.24;100457.09;5054439;28;20024;-70
2021/09/10 02:52:34;;;;;;;31.55;14.30;;;;;;;26.77;48.13;100458.25;5072362;28;20073;-70
2021/09/10 02:55:00;;;;;;;24.55;13.73;;;;;;;26.68;48.29;100457.25;5087659;28;20062;-70
2021/09/10 02:57:26;;;;;;;19.55;12.18;;;;;;;26.63;48.50;100452.13;5072338;28;20025;-70
2021/09/10 02:59:54;;;;;;;24.02;13.85;;;;;;;26.58;48.90;100458.22;5072271;28;20082;-70
2021/09/10 03:02:20;;;;;;;26.02;15.32;;;;;;;26.60;48.46;100448.19;5072166;28;20078;-70
2021/09/10 03:04:47;;;;;;;22.35;13.45;;;;;;;26.67;48.60;100455.66;5072119;28;20025;-70
2021/09/10 03:07:16;;;;;;;20.48;12.70;;;;;;;26.67;48.24;100461.25;5073793;28;20067;-70
2021/09/10 03:09:42;;;;;;;17.92;11.13;;;;;;;26.70;48.38;100458.41;5076153;28;20024;-70
2021/09/10 03:12:08;;;;;;;23.30;13.25;;;;;;;26.82;48.08;100456.94;5076325;28;20032;-70
2021/09/10 03:14:34;;;;;;;25.08;15.35;;;;;;;26.84;48.02;100460.13;5075953;28;20085;-70
2021/09/10 03:17:00;;;;;;;27.15;14.93;;;;;;;26.71;48.62;100454.38;5075990;28;20104;-70
2021/09/10 03:19:27;;;;;;;24.85;15.20;;;;;;;26.68;48.66;100457.25;5075810;28;20020;-70
2021/09/10 03:21:53;;;;;;;26.05;15.82;;;;;;;26.73;48.33;100456.75;5075835;28;20021;-70
2021/09/10 03:24:19;;;;;;;23.95;14.27;;;;;;;26.58;48.70;100456.22;5075727;28;20031;-70
2021/09/10 03:26:45;;;;;;;34.67;15.43;;;;;;;26.53;48.71;100451.91;5075659;28;20024;-70
2021/09/10 03:29:12;;;;;;;29.23;14.02;;;;;;;26.63;48.75;100452.94;5075675;28;20025;-70
2021/09/10 03:31:38;;;;;;;22.00;14.05;;;;;;;26.62;48.53;100454.16;5075842;28;20025;-75
2021/09/10 03:34:04;;;;;;;29.17;14.05;;;;;;;26.74;48.25;100452.72;5057694;28;20410;-70
2021/09/10 03:36:29;;;;;;;24.05;13.82;;;;;;;26.67;48.57;100453.63;5075607;28;20027;-70
2021/09/10 03:38:55;;;;;;;23.23;13.93;;;;;;;26.61;48.58;100455.38;5057570;28;20383;-71
2021/09/10 03:41:21;;;;;;;21.60;12.98;;;;;;;26.55;48.96;100457.09;5075519;28;20494;-70
2021/09/10 03:43:49;;;;;;;23.67;12.88;;;;;;;26.52;48.92;100461.53;5075472;28;20048;-70
2021/09/10 03:46:15;;;;;;;24.58;12.32;;;;;;;26.60;48.75;100459.41;5075441;28;20517;-73
2021/09/10 03:48:41;;;;;;;17.75;11.68;;;;;;;26.58;48.80;100458.22;5075280;28;20471;-72
2021/09/10 03:51:06;;;;;;;23.25;14.15;;;;;;;26.47;49.18;100458.44;5075235;28;20056;-70
2021/09/10 03:53:33;;;;;;;22.75;12.77;;;;;;;26.37;49.17;100456.59;5075179;28;20039;-70
2021/09/10 03:55:58;;;;;;;23.33;11.73;;;;;;;26.37;49.31;100456.59;5075294;28;20024;-70
2021/09/10 03:58:24;;;;;;;18.98;11.38;;;;;;;26.49;49.03;100465.19;5075163;28;20550;-70
2021/09/10 04:00:49;;;;;;;20.45;11.35;;;;;;;26.53;48.74;100451.13;5075123;28;20016;-70
2021/09/10 04:03:15;;;;;;;20.10;11.05;;;;;;;26.56;48.85;100458.66;5075102;28;20029;-70
2021/09/10 04:05:41;;;;;;;19.48;10.23;;;;;;;26.42;48.93;100456.13;5074990;28;20024;-70
2021/09/10 04:08:06;;;;;;;22.27;11.85;;;;;;;26.43;48.85;100464.09;5075026;28;20029;-70
2021/09/10 04:10:32;;;;;;;26.85;11.38;;;;;;;26.36;48.90;100453.00;5075020;28;20029;-69
2021/09/10 04:12:57;;;;;;;28.30;12.80;;;;;;;26.29;49.44;100459.50;5074867;28;20502;-78
2021/09/10 04:15:23;;;;;;;25.50;12.98;;;;;;;26.41;49.03;100451.75;5075223;28;20112;-79
2021/09/10 04:17:49;;;;;;;25.95;13.23;;;;;;;26.38;48.74;100456.19;5074799;28;20025;-78
2021/09/10 04:20:14;;;;;;;34.28;13.75;;;;;;;26.43;48.95;100457.72;5074990;28;20025;-79
2021/09/10 04:22:41;;;;;;;31.90;14.73;;;;;;;26.51;48.60;100454.34;5057051;28;20032;-78
2021/09/10 04:25:08;;;;;;;31.38;14.52;;;;;;;26.57;48.51;100449.03;5075299;28;20028;-78
2021/09/10 04:27:34;;;;;;;32.75;14.73;;;;;;;26.54;48.59;100433.09;5075256;28;20054;-78
2021/09/10 04:29:59;;;;;;;35.45;16.02;;;;;;;26.54;48.34;100447.09;5075099;28;20475;-78
2021/09/10 04:32:25;;;;;;;35.95;15.73;;;;;;;26.50;48.42;100449.97;5074975;28;20086;-90
2021/09/10 04:34:51;;;;;;;41.75;17.52;;;;;;;26.46;48.46;100451.25;5074839;28;20035;-80
2021/09/10 04:37:17;;;;;;;36.50;17.05;;;;;;;26.47;48.63;100444.44;5074953;28;20109;-78
2021/09/10 04:39:43;;;;;;;32.72;15.30;;;;;;;26.44;48.49;100448.09;5074668;28;20082;-78
2021/09/10 04:42:09;;;;;;;31.45;15.32;;;;;;;26.36;48.69;100443.81;5056782;28;20475;-81
2021/09/10 04:44:35;;;;;;;32.75;15.18;;;;;;;26.34;48.79;100455.44;5074504;28;20059;-78
2021/09/10 04:47:01;;;;;;;39.17;15.80;;;;;;;26.34;48.94;100452.63;5074797;28;20479;-79
2021/09/10 04:49:26;;;;;;;26.90;14.20;;;;;;;26.31;48.92;100449.91;5075201;28;20040;-79
2021/09/10 04:51:52;;;;;;;35.22;16.15;;;;;;;26.39;48.32;100459.81;5057030;28;20029;-78
2021/09/10 04:54:18;;;;;;;41.17;14.35;;;;;;;26.39;48.63;100454.19;5074500;28;20028;-77
2021/09/10 04:56:45;;;;;;;31.38;14.55;;;;;;;26.43;48.76;100452.09;5074734;28;20083;-88
2021/09/10 04:59:11;;;;;;;34.17;15.20;;;;;;;26.45;48.88;100455.25;5056992;28;20463;-79
2021/09/10 05:01:37;;;;;;;31.02;14.27;;;;;;;26.50;48.68;100455.56;5074695;28;20106;-79
2021/09/10 05:04:03;;;;;;;32.78;16.17;;;;;;;26.48;48.46;100455.22;5074564;28;20111;-78
2021/09/10 05:06:29;;;;;;;34.40;14.95;;;;;;;26.43;48.82;100452.91;5056693;28;20365;-88
2021/09/10 05:08:55;;;;;;;36.70;15.30;;;;;;;26.40;48.81;100452.97;5074702;28;20036;-77
2021/09/10 05:11:21;;;;;;;28.73;15.27;;;;;;;26.35;49.12;100457.00;5074504;28;20064;-78
2021/09/10 05:13:46;;;;;;;36.05;15.63;;;;;;;26.43;48.85;100461.28;5074356;28;20521;-78
2021/09/10 05:16:12;;;;;;;33.28;14.40;;;;;;;26.52;48.47;100457.94;5074692;28;20059;-78
2021/09/10 05:18:38;;;;;;;36.00;15.90;;;;;;;26.38;48.81;100450.56;5074631;28;20024;-84
2021/09/10 05:21:05;;;;;;;39.10;15.40;;;;;;;26.36;49.19;100449.41;5074493;28;20062;-85
2021/09/10 05:23:30;;;;;;;30.13;14.55;;;;;;;26.38;49.23;100456.19;5074487;28;20029;-82
2021/09/10 05:25:57;;;;;;;35.38;16.25;;;;;;;26.38;49.23;100458.19;5074651;28;20395;-82
2021/09/10 05:28:23;;;;;;;39.22;16.15;;;;;;;26.39;49.08;100455.00;5056255;28;20028;-78
2021/09/10 05:30:48;;;;;;;39.33;16.60;;;;;;;26.38;49.33;100461.00;5073950;28;20391;-79
2021/09/10 05:33:14;;;;;;;40.85;15.57;;;;;;;26.53;48.59;100463.13;5074293;28;20052;-79
2021/09/10 05:35:40;;;;;;;33.80;16.25;;;;;;;26.45;48.73;100466.47;5074129;28;20035;-83
2021/09/10 05:38:05;;;;;;;34.88;14.63;;;;;;;26.43;49.15;100460.50;5073596;28;20099;-82
2021/09/10 05:40:31;;;;;;;33.88;14.73;;;;;;;26.44;48.84;100470.50;5074091;28;20056;-78
2021/09/10 05:42:56;;;;;;;31.40;15.43;;;;;;;26.43;48.89;100472.50;5073988;28;20028;-86
2021/09/10 05:45:22;;;;;;;39.45;15.02;;;;;;;26.32;49.52;100462.69;5074067;28;20031;-78
2021/09/10 05:47:48;;;;;;;38.90;15.60;;;;;;;26.36;49.44;100480.22;5073714;28;20020;-86
2021/09/10 05:50:13;;;;;;;39.15;15.40;;;;;;;26.28;49.80;100473.94;5073876;28;20072;-86
2021/09/10 05:52:39;;;;;;;40.08;15.75;;;;;;;26.33;49.72;100478.28;5073657;28;20576;-78
2021/09/10 05:55:06;;;;;;;42.80;16.63;;;;;;;26.25;49.81;100498.00;5055707;28;20078;-78
2021/09/10 05:57:31;;;;;;;43.42;18.85;;;;;;;26.34;49.59;100488.25;5073569;28;20031;-78
2021/09/10 05:59:57;;;;;;;41.78;17.80;;;;;;;26.27;50.04;100500.38;5055701;28;20391;-78
2021/09/10 06:02:22;;;;;;;37.83;17.65;;;;;;;26.18;50.15;100503.72;5073444;28;20031;-83
2021/09/10 06:04:48;;;;;;;49.33;19.40;;;;;;;26.07;50.32;100503.13;5073355;28;20040;-77
2021/09/10 06:07:15;;;;;;;42.22;18.77;;;;;;;26.17;50.29;100506.94;5073265;28;20044;-78
2021/09/10 06:09:41;;;;;;;40.03;18.35;;;;;;;26.33;49.97;100509.09;5073367;28;20035;-83
2021/09/10 06:12:07;;;;;;;39.55;17.90;;;;;;;26.40;49.60;100509.78;5055576;28;20450;-77
2021/09/10 06:14:33;;;;;;;38.22;17.67;;;;;;;26.36;50.04;100514.63;5073530;28;20115;-77
2021/09/10 06:16:59;;;;;;;44.83;18.00;;;;;;;26.36;49.99;100513.81;5073105;28;20051;-77
2021/09/10 06:19:25;;;;;;;63.15;22.52;;;;;;;26.36;49.94;100517.41;5073658;28;20024;-92
2021/09/10 06:21:51;;;;;;;57.45;21.08;;;;;;;26.43;49.84;100511.72;5074065;28;20558;-89
2021/09/10 06:24:16;;;;;;;67.88;22.75;;;;;;;26.40;50.18;100520.19;5056015;28;20387;-77
2021/09/10 06:26:42;;;;;;;63.75;24.67;;;;;;;26.40;50.05;100514.59;5073983;28;20028;-90
2021/09/10 06:29:08;;;;;;;65.80;25.42;;;;;;;26.39;50.00;100521.41;5074175;28;20078;-90
2021/09/10 06:31:33;;;;;;;68.82;26.25;;;;;;;26.38;50.23;100528.22;5073900;28;20435;-85
2021/09/10 06:33:59;;;;;;;83.68;27.38;;;;;;;26.25;50.95;100528.03;5073085;28;20087;-90
2021/09/10 06:36:24;;;;;;;80.50;26.17;;;;;;;26.38;50.61;100540.22;5069584;28;20133;-88
2021/09/10 06:38:50;;;;;;;59.10;24.80;;;;;;;26.30;50.96;100544.34;5071707;28;20032;-77
2021/09/10 06:41:16;;;;;;;79.80;26.50;;;;;;;26.31;50.85;100547.94;5056063;28;20117;-72
2021/09/10 06:43:42;;;;;;;70.97;27.45;;;;;;;26.34;50.89;100542.25;5078845;28;20039;-87
2021/09/10 06:46:07;;;;;;;77.43;27.65;;;;;;;26.42;50.59;100549.34;5079725;28;20025;-89
2021/09/10 06:48:33;;;;;;;66.28;25.08;;;;;;;26.42;50.95;100543.75;5079390;28;20025;-76
2021/09/10 06:50:59;;;;;;;77.20;26.33;;;;;;;26.37;51.07;100555.41;5079500;28;20025;-86
2021/09/10 06:53:25;;;;;;;68.68;26.50;;;;;;;26.58;50.44;100537.47;5079356;28;20074;-76
2021/09/10 06:55:50;;;;;;;74.18;26.30;;;;;;;26.44;50.94;100548.94;5078912;28;20439;-78
2021/09/10 06:58:16;;;;;;;77.05;27.20;;;;;;;26.42;50.90;100557.75;5078727;28;20068;-77
2021/09/10 07:00:41;;;;;;;79.03;27.58;;;;;;;26.46;51.18;100552.13;5079018;28;20099;-86
2021/09/10 07:03:07;;;;;;;80.57;27.45;;;;;;;26.46;51.11;100550.09;5060922;28;20052;-92
2021/09/10 07:05:32;;;;;;;70.40;26.40;;;;;;;26.57;50.72;100560.31;5059650;28;20047;-82
2021/09/10 07:07:58;;;;;;;65.25;25.00;;;;;;;26.51;51.27;100566.41;5077771;28;20439;-82
2021/09/10 07:10:24;;;;;;;75.82;27.10;;;;;;;26.46;51.43;100564.09;5079033;28;20091;-80
2021/09/10 07:12:50;;;;;;;70.32;27.63;;;;;;;26.49;51.12;100563.25;5078210;28;20422;-80
2021/09/10 07:15:16;;;;;;;66.93;25.98;;;;;;;26.49;51.24;100563.25;5078206;28;20028;-82
2021/09/10 07:17:42;;;;;;;64.13;26.50;;;;;;;26.55;51.41;100571.97;5078982;28;20032;-79
2021/09/10 07:20:08;;;;;;;70.72;27.02;;;;;;;26.65;51.22;100578.59;5066912;28;20029;-78
2021/09/10 07:22:34;;;;;;;57.88;25.02;;;;;;;26.73;51.04;100582.84;5063463;28;20036;-75
2021/09/10 07:24:59;;;;;;;68.72;26.42;;;;;;;26.84;50.54;100577.84;5062454;28;20517;-77
2021/09/10 07:27:25;;;;;;;64.32;25.67;;;;;;;26.87;50.64;100570.59;5044220;28;20048;-76
2021/09/10 07:29:50;;;;;;;61.40;23.35;;;;;;;26.92;50.49;100584.13;5063494;28;20051;-76
2021/09/10 07:32:16;;;;;;;60.70;23.27;;;;;;;26.88;50.62;100578.56;5063284;28;20024;-76
2021/09/10 07:34:42;;;;;;;48.58;20.25;;;;;;;27.02;50.30;100588.72;5062570;28;20119;-76
2021/09/10 07:37:07;;;;;;;50.03;23.15;;;;;;;26.97;50.41;100592.03;5061851;28;20544;-76
2021/09/10 07:39:33;;;;;;;52.67;19.77;;;;;;;26.95;50.47;100592.47;5078206;28;20068;-76
2021/09/10 07:41:59;;;;;;;48.30;19.17;;;;;;;26.98;50.63;100593.59;5078233;28;20379;-76
2021/09/10 07:44:24;;;;;;;32.58;17.45;;;;;;;26.99;50.24;100593.19;5078390;28;20078;-76
2021/09/10 07:46:52;;;;;;;46.90;18.88;;;;;;;27.06;50.17;100601.50;5078415;28;20035;-76
2021/09/10 07:49:18;;;;;;;46.45;19.52;;;;;;;27.07;50.48;100599.50;5077593;28;20024;-76
2021/09/10 07:51:44;;;;;;;36.90;19.83;;;;;;;27.12;50.20;100603.78;5060175;28;20053;-76
2021/09/10 07:54:09;;;;;;;32.83;18.10;;;;;;;27.07;50.35;100607.91;5074032;28;20025;-76
2021/09/10 07:56:35;;;;;;;33.78;19.55;;;;;;;27.14;50.07;100602.16;5073981;28;20039;-76
2021/09/10 07:59:00;;;;;;;54.10;20.25;;;;;;;27.20;50.29;100608.03;5056625;28;20123;-75
2021/09/10 08:01:26;;;;;;;35.47;17.63;;;;;;;27.30;50.01;100607.84;5057147;28;20133;-76
2021/09/10 08:03:52;;;;;;;36.65;18.70;;;;;;;27.31;50.01;100611.44;5074895;28;20029;-76
2021/09/10 08:06:17;;;;;;;91.68;22.88;;;;;;;27.34;49.98;100599.34;5075039;28;20021;-76
2021/09/10 08:08:43;;;;;;;43.47;17.67;;;;;;;27.42;49.71;100616.84;5074714;28;20021;-76
2021/09/10 08:11:09;;;;;;;45.40;16.10;;;;;;;27.22;50.44;100619.66;5074681;28;20048;-76
2021/09/10 08:13:34;;;;;;;38.75;18.10;;;;;;;27.02;50.88;100623.16;5074644;28;20024;-76
2021/09/10 08:16:00;;;;;;;39.22;17.38;;;;;;;27.26;50.27;100631.56;5074764;28;20122;-76
2021/09/10 08:18:25;;;;;;;39.78;17.67;;;;;;;27.24;50.17;100623.59;5074623;28;20030;-76
2021/09/10 08:20:55;;;;;;;39.78;17.02;;;;;;;27.28;50.45;100626.31;5056707;28;20028;-77
2021/09/10 08:23:21;;;;;;;31.17;16.58;;;;;;;27.38;49.78;100620.50;5074451;28;20036;-76
2021/09/10 08:25:46;;;;;;;32.70;17.90;;;;;;;27.47;49.82;100624.75;5074528;28;20037;-77
2021/09/10 08:28:12;;;;;;;28.08;16.90;;;;;;;27.47;49.58;100625.53;5073061;28;20025;-76
2021/09/10 08:30:37;;;;;;;37.92;18.60;;;;;;;27.44;49.96;100632.03;5074401;28;20020;-76
2021/09/10 08:33:10;;;;;;;36.45;17.98;;;;;;;27.49;49.95;100628.72;5056582;28;20078;-77
2021/09/10 08:35:35;;;;;;;36.72;17.02;;;;;;;27.64;49.57;100635.59;5073984;28;20500;-76
2021/09/10 08:38:01;;;;;;;28.52;17.73;;;;;;;27.81;49.31;100632.88;5073822;28;20044;-75
2021/09/10 08:40:26;;;;;;;31.15;16.45;;;;;;;27.85;49.63;100639.22;5073589;28;20124;-77
2021/09/10 08:42:53;;;;;;;26.73;15.48;;;;;;;27.77;49.95;100640.59;5073944;28;20032;-78
2021/09/10 08:45:18;;;;;;;20.67;12.40;;;;;;;27.68;50.14;100646.03;5073781;28;20025;-76
2021/09/10 08:47:45;;;;;;;12.98;9.02;;;;;;;27.92;49.44;100644.69;5056071;28;20039;-76
2021/09/10 08:50:12;;;;;;;13.43;9.73;;;;;;;28.04;49.21;100649.66;5073557;28;20064;-76
2021/09/10 08:52:37;;;;;;;19.48;9.93;;;;;;;27.99;49.00;100650.16;5073806;28;20059;-77
2021/09/10 08:55:07;;;;;;;12.05;8.93;;;;;;;28.14;48.60;100650.63;5073310;28;20071;-75
2021/09/10 08:57:35;;;;;;;24.48;11.98;;;;;;;28.12;48.42;100650.28;5069664;28;20028;-76
2021/09/10 09:00:06;;;;;;;28.33;11.45;;;;;;;28.13;48.47;100649.84;5073466;28;20028;-77
2021/09/10 09:02:32;;;;;;;24.23;12.30;;;;;;;28.20;48.26;100660.13;5052688;28;20041;-78
2021/09/10 09:04:58;;;;;;;19.13;13.63;;;;;;;28.07;48.79;100662.81;5073143;28;20031;-75
2021/09/10 09:07:27;;;;;;;16.20;11.02;;;;;;;28.16;48.61;100660.19;5073538;28;20019;-76
2021/09/10 09:09:57;;;;;;;21.17;12.75;;;;;;;28.22;48.29;100651.25;5052931;28;20099;-76
2021/09/10 09:12:29;;;;;;;21.67;13.38;;;;;;;28.35;47.96;100661.41;5073804;28;20016;-76
2021/09/10 09:14:58;;;;;;;27.05;17.30;;;;;;;28.23;48.35;100662.06;5071115;28;20070;-76
2021/09/10 09:17:31;;;;;;;27.83;18.48;;;;;;;28.33;48.31;100657.44;5073380;28;20078;-76
2021/09/10 09:20:24;;;;;;;25.73;19.52;;;;;;;28.26;48.02;100666.78;5071068;28;20016;-76
2021/09/10 09:22:55;;;;;;;35.65;20.40;;;;;;;28.35;48.15;100671.84;5073021;28;20500;-76
2021/09/10 09:25:27;;;;;;;38.28;21.60;;;;;;;28.31;47.89;100671.13;5073057;28;20103;-76
2021/09/10 09:27:53;;;;;;;25.48;18.35;;;;;;;28.16;48.43;100671.44;5068726;28;20031;-75
2021/09/10 09:30:39;;;;;;;26.00;17.17;;;;;;;28.37;47.77;100673.00;5073177;28;20459;-75
2021/09/10 09:33:05;;;;;;;22.83;15.32;;;;;;;28.47;47.58;100673.97;5072092;28;20029;-76
2021/09/10 09:35:32;;;;;;;15.73;12.75;;;;;;;28.67;47.22;100677.50;5072756;28;20031;-76
2021/09/10 09:37:59;;;;;;;18.77;11.95;;;;;;;28.84;47.27;100680.31;5072710;28;20091;-77
2021/09/10 09:40:34;;;;;;;20.20;11.35;;;;;;;28.99;47.25;100676.72;5072332;28;20036;-78
2021/09/10 09:43:12;;;;;;;18.27;13.27;;;;;;;28.66;47.27;100669.50;5053172;28;20025;-77
2021/09/10 09:45:38;;;;;;;26.33;12.48;;;;;;;29.18;46.69;100677.84;5070798;28;20051;-76
2021/09/10 09:48:09;;;;;;;15.50;12.50;;;;;;;29.42;46.41;100674.81;5072644;28;20218;-76
2021/09/10 09:50:57;;;;;;;19.90;13.27;;;;;;;29.58;45.96;100671.16;5070113;28;20021;-77
2021/09/10 09:59:24;;;;;;;12.88;10.40;;;;;;;29.66;45.21;100678.97;5032933;28;20100;-75
2021/09/10 10:02:04;;;;;;;18.02;11.07;;;;;;;29.59;45.01;100686.81;5046896;28;20080;-74
2021/09/10 10:20:51;;;;;;;18.92;13.25;;;;;;;29.17;45.00;100687.53;5536478;22;20105;-72
2021/09/10 10:23:41;;;;;;;14.45;11.60;;;;;;;29.06;45.14;100687.00;5072363;28;20031;-72
2021/09/10 10:26:38;;;;;;;11.63;9.57;;;;;;;28.91;45.31;100697.81;5071931;28;20517;-72
2021/09/10 10:29:18;;;;;;;10.75;6.63;;;;;;;28.70;45.69;100693.47;5054583;28;20064;-72
2021/09/10 10:32:06;;;;;;;11.95;6.88;;;;;;;28.72;45.91;100691.03;5072650;28;20032;-73
2021/09/10 10:34:35;;;;;;;10.68;5.88;;;;;;;28.83;45.44;100701.22;5072336;28;20020;-72
2021/09/10 10:37:02;;;;;;;11.63;7.75;;;;;;;28.93;45.32;100705.81;5054387;28;20028;-72
2021/09/10 10:39:31;;;;;;;8.23;6.85;;;;;;;29.05;45.10;100698.69;5072395;28;20028;-72
2021/09/10 10:42:06;;;;;;;11.57;5.93;;;;;;;29.11;45.36;100702.56;5070501;28;20471;-73
2021/09/10 10:44:37;;;;;;;6.80;5.13;;;;;;;29.03;45.62;100699.16;5071748;28;20029;-72
2021/09/10 10:47:32;;;;;;;9.68;5.72;;;;;;;29.30;44.89;100696.78;5071907;28;20508;-73
2021/09/10 10:50:26;;;;;;;9.93;6.40;;;;;;;29.40;44.88;100694.16;5050218;28;20032;-72
2021/09/10 10:53:19;;;;;;;7.85;6.30;;;;;;;29.46;45.16;100689.53;5070143;28;20557;-71
2021/09/10 10:55:45;;;;;;;11.95;5.13;;;;;;;29.69;44.32;100696.97;5071205;28;20044;-76
2021/09/10 10:58:31;;;;;;;9.35;5.72;;;;;;;29.62;44.38;100697.19;5072674;28;20425;-86
2021/09/10 11:01:09;;;;;;;6.45;5.75;;;;;;;29.79;44.25;100699.50;5072710;28;20025;-73
2021/09/10 11:03:35;;;;;;;6.53;5.93;;;;;;;29.61;44.52;100696.38;5072477;28;20112;-85
2021/09/10 11:06:27;;;;;;;10.25;6.63;;;;;;;29.66;44.12;100695.06;5072284;28;20029;-73
2021/09/10 11:09:05;;;;;;;13.30;6.95;;;;;;;29.75;43.70;100687.53;5054248;28;20028;-72
2021/09/10 11:11:44;;;;;;;7.30;5.13;;;;;;;29.65;43.65;100702.72;5070303;28;20039;-73
2021/09/10 11:14:48;;;;;;;9.95;6.07;;;;;;;29.47;44.29;100694.75;5051976;28;20092;-70
2021/09/10 11:18:04;;;;;;;12.20;5.55;;;;;;;29.34;44.38;100693.13;5052108;28;20029;-79
2021/09/10 11:50:51;;;;;;;5.47;3.10;;;;;;;29.96;42.09;100696.63;5468861;22;20052;-76
2021/09/10 11:53:29;;;;;;;4.93;3.40;;;;;;;30.14;42.61;100702.53;5075334;28;20042;-68
2021/09/10 11:56:09;;;;;;;5.88;3.50;;;;;;;30.23;41.91;100711.13;5057472;28;20028;-76
2021/09/10 11:58:51;;;;;;;6.60;3.45;;;;;;;30.38;41.31;100711.47;5075397;28;20028;-74
2021/09/10 12:01:30;;;;;;;5.10;3.55;;;;;;;30.58;41.44;100699.97;5057220;28;20074;-73
2021/09/10 12:04:07;;;;;;;5.80;3.90;;;;;;;30.16;41.98;100705.69;5075222;28;20025;-73
2021/09/10 12:06:50;;;;;;;7.43;3.88;;;;;;;30.10;41.82;100707.50;5075066;28;20025;-75